createdAt,value
2023-05-18T00:00:17.364Z, 37.57
2023-05-18T00:01:17.330Z, 37.53
2023-05-18T00:02:17.410Z, 37.50
2023-05-18T00:03:17.487Z, 37.48
2023-05-18T00:04:17.409Z, 37.50
2023-05-18T00:05:17.349Z, 37.49
2023-05-18T00:06:17.403Z, 37.50
2023-05-18T00:07:17.390Z, 37.54
2023-05-18T00:08:17.415Z, 37.46
2023-05-18T00:09:17.401Z, 37.47
2023-05-18T00:10:17.420Z, 37.46
2023-05-18T00:11:17.448Z, 37.44
2023-05-18T00:12:17.431Z, 37.44
2023-05-18T00:13:17.448Z, 37.43
2023-05-18T00:14:17.457Z, 37.41
2023-05-18T00:15:17.548Z, 37.38
2023-05-18T00:16:17.570Z, 37.40
2023-05-18T00:17:17.542Z, 37.39
2023-05-18T00:18:17.528Z, 37.40
2023-05-18T00:19:17.733Z, 37.38
2023-05-18T00:20:17.550Z, 37.38
2023-05-18T00:21:17.568Z, 37.34
2023-05-18T00:22:17.549Z, 37.38
2023-05-18T00:23:17.581Z, 37.31
2023-05-18T00:24:17.642Z, 37.30
2023-05-18T00:25:17.629Z, 37.35
2023-05-18T00:26:17.634Z, 37.33
2023-05-18T00:27:17.691Z, 37.31
2023-05-18T00:28:17.659Z, 37.29
2023-05-18T00:29:17.702Z, 37.28
2023-05-18T00:30:17.681Z, 37.24
2023-05-18T00:31:17.753Z, 37.21
2023-05-18T00:32:17.710Z, 37.19
2023-05-18T00:33:17.747Z, 37.21
2023-05-18T00:34:17.736Z, 37.19
2023-05-18T00:35:17.733Z, 37.19
2023-05-18T00:36:17.732Z, 37.18
2023-05-18T00:37:17.794Z, 37.20
2023-05-18T00:38:17.861Z, 37.16
2023-05-18T00:39:17.768Z, 37.13
2023-05-18T00:40:17.841Z, 37.07
2023-05-18T00:41:17.807Z, 37.09
2023-05-18T00:42:17.809Z, 37.18
2023-05-18T00:43:17.815Z, 37.19
2023-05-18T00:44:17.808Z, 37.14
2023-05-18T00:45:17.808Z, 37.10
2023-05-18T00:46:17.866Z, 37.09
2023-05-18T00:47:17.846Z, 37.07
2023-05-18T00:48:17.898Z, 37.04
2023-05-18T00:49:17.856Z, 37.05
2023-05-18T00:50:17.895Z, 37.03
2023-05-18T00:51:17.906Z, 37.00
2023-05-18T00:52:17.902Z, 37.02
2023-05-18T00:53:17.931Z, 37.06
2023-05-18T00:54:17.935Z, 37.03
2023-05-18T00:55:18.033Z, 36.98
2023-05-18T00:56:17.980Z, 37.01
2023-05-18T00:57:18.064Z, 36.99
2023-05-18T00:58:18.031Z, 36.97
2023-05-18T00:59:18.082Z, 36.95
2023-05-18T01:00:18.042Z, 36.97
2023-05-18T01:01:18.129Z, 36.95
2023-05-18T01:02:18.071Z, 36.98
2023-05-18T01:03:18.099Z, 36.95
2023-05-18T01:04:18.056Z, 36.95
2023-05-18T01:05:18.091Z, 36.93
2023-05-18T01:06:18.082Z, 36.93
2023-05-18T01:07:18.068Z, 36.97
2023-05-18T01:08:18.194Z, 36.90
2023-05-18T01:09:18.134Z, 36.89
2023-05-18T01:10:18.132Z, 36.94
2023-05-18T01:11:18.204Z, 36.89
2023-05-18T01:12:18.189Z, 36.91
2023-05-18T01:13:18.192Z, 36.90
2023-05-18T01:14:18.185Z, 36.91
2023-05-18T01:15:18.260Z, 36.87
2023-05-18T01:16:18.228Z, 36.85
2023-05-18T01:17:18.295Z, 36.82
2023-05-18T01:18:18.295Z, 36.79
2023-05-18T01:19:18.315Z, 36.83
2023-05-18T01:20:18.329Z, 36.80
2023-05-18T01:21:18.312Z, 36.77
2023-05-18T01:22:18.343Z, 36.81
2023-05-18T01:23:18.312Z, 36.78
2023-05-18T01:24:18.317Z, 36.74
2023-05-18T01:25:18.324Z, 36.72
2023-05-18T01:26:18.331Z, 36.74
2023-05-18T01:27:18.412Z, 36.76
2023-05-18T01:28:18.379Z, 36.76
2023-05-18T01:29:18.382Z, 36.71
2023-05-18T01:30:18.454Z, 36.69
2023-05-18T01:31:18.476Z, 36.70
2023-05-18T01:32:18.405Z, 36.64
2023-05-18T01:33:18.402Z, 36.64
2023-05-18T01:34:18.484Z, 36.66
2023-05-18T01:35:18.500Z, 36.69
2023-05-18T01:36:18.529Z, 36.67
2023-05-18T01:37:18.492Z, 36.64
2023-05-18T01:38:18.562Z, 36.63
2023-05-18T01:39:18.558Z, 36.62
2023-05-18T01:40:18.527Z, 36.63
2023-05-18T01:41:18.540Z, 36.62
2023-05-18T01:42:18.529Z, 36.59
2023-05-18T01:43:18.618Z, 36.59
2023-05-18T01:44:18.602Z, 36.58
2023-05-18T01:45:18.649Z, 36.61
2023-05-18T01:46:18.660Z, 36.62
2023-05-18T01:47:18.627Z, 36.56
2023-05-18T01:48:18.631Z, 36.55
2023-05-18T01:49:18.617Z, 36.58
2023-05-18T01:50:18.634Z, 36.55
2023-05-18T01:51:18.645Z, 36.50
2023-05-18T01:52:18.694Z, 36.49
2023-05-18T01:53:18.665Z, 36.48
2023-05-18T01:54:18.718Z, 36.48
2023-05-18T01:55:18.676Z, 36.49
2023-05-18T01:56:18.682Z, 36.51
2023-05-18T01:57:18.752Z, 36.48
2023-05-18T01:58:18.729Z, 36.42
2023-05-18T01:59:18.775Z, 36.42
2023-05-18T02:00:18.794Z, 36.42
2023-05-18T02:01:18.818Z, 36.43
2023-05-18T02:02:18.769Z, 36.45
2023-05-18T02:03:19.069Z, 36.47
2023-05-18T02:04:18.865Z, 36.42
2023-05-18T02:05:18.795Z, 36.41
2023-05-18T02:06:18.814Z, 36.34
2023-05-18T02:07:18.812Z, 36.35
2023-05-18T02:08:18.908Z, 36.36
2023-05-18T02:09:18.874Z, 36.39
2023-05-18T02:10:18.895Z, 36.31
2023-05-18T02:11:18.885Z, 36.32
2023-05-18T02:12:18.899Z, 36.36
2023-05-18T02:13:18.884Z, 36.36
2023-05-18T02:14:18.899Z, 36.35
2023-05-18T02:15:18.906Z, 36.36
2023-05-18T02:16:18.982Z, 36.31
2023-05-18T02:17:18.951Z, 36.31
2023-05-18T02:18:18.940Z, 36.36
2023-05-18T02:19:19.066Z, 36.36
2023-05-18T02:20:19.068Z, 36.34
2023-05-18T02:21:19.000Z, 36.28
2023-05-18T02:22:19.073Z, 36.27
2023-05-18T02:23:19.028Z, 36.25
2023-05-18T02:24:19.087Z, 36.25
2023-05-18T02:25:19.057Z, 36.24
2023-05-18T02:26:19.118Z, 36.22
2023-05-18T02:27:19.079Z, 36.21
2023-05-18T02:28:19.077Z, 36.17
2023-05-18T02:29:19.081Z, 36.17
2023-05-18T02:30:19.099Z, 36.22
2023-05-18T02:31:19.205Z, 36.21
2023-05-18T02:32:19.141Z, 36.19
2023-05-18T02:33:19.195Z, 36.20
2023-05-18T02:34:19.172Z, 36.19
2023-05-18T02:35:19.210Z, 36.20
2023-05-18T02:36:19.201Z, 36.15
2023-05-18T02:37:19.194Z, 36.10
2023-05-18T02:38:19.272Z, 36.10
2023-05-18T02:39:19.254Z, 36.09
2023-05-18T02:40:19.292Z, 36.07
2023-05-18T02:41:19.265Z, 36.09
2023-05-18T02:42:19.304Z, 36.08
2023-05-18T02:43:19.314Z, 36.08
2023-05-18T02:44:19.299Z, 36.04
2023-05-18T02:45:19.291Z, 36.01
2023-05-18T02:46:19.348Z, 36.03
2023-05-18T02:47:19.312Z, 36.03
2023-05-18T02:48:19.296Z, 36.07
2023-05-18T02:49:19.326Z, 36.04
2023-05-18T02:50:19.328Z, 36.01
2023-05-18T02:51:19.359Z, 35.99
2023-05-18T02:52:19.352Z, 35.99
2023-05-18T02:53:19.367Z, 35.97
2023-05-18T02:54:19.409Z, 36.00
2023-05-18T02:55:19.411Z, 35.96
2023-05-18T02:56:19.496Z, 35.98
2023-05-18T02:57:19.466Z, 35.99
2023-05-18T02:58:19.510Z, 35.97
2023-05-18T02:59:19.487Z, 36.02
2023-05-18T03:00:19.484Z, 35.96
2023-05-18T03:01:19.589Z, 35.96
2023-05-18T03:02:19.585Z, 35.95
2023-05-18T03:03:19.670Z, 35.97
2023-05-18T03:04:19.515Z, 35.92
2023-05-18T03:05:19.614Z, 35.91
2023-05-18T03:06:19.589Z, 35.91
2023-05-18T03:07:19.624Z, 35.94
2023-05-18T03:08:19.632Z, 35.92
2023-05-18T03:09:19.661Z, 35.96
2023-05-18T03:10:19.705Z, 35.95
2023-05-18T03:11:19.693Z, 35.90
2023-05-18T03:12:19.675Z, 35.91
2023-05-18T03:13:19.685Z, 35.89
2023-05-18T03:14:19.681Z, 35.91
2023-05-18T03:15:19.687Z, 35.86
2023-05-18T03:16:19.700Z, 35.84
2023-05-18T03:17:19.673Z, 35.81
2023-05-18T03:18:19.738Z, 35.76
2023-05-18T03:19:19.727Z, 35.75
2023-05-18T03:20:19.792Z, 35.75
2023-05-18T03:21:19.758Z, 35.80
2023-05-18T03:22:19.754Z, 35.79
2023-05-18T03:23:19.753Z, 35.76
2023-05-18T03:24:19.760Z, 35.74
2023-05-18T03:25:19.790Z, 35.70
2023-05-18T03:26:19.792Z, 35.71
2023-05-18T03:27:19.879Z, 35.73
2023-05-18T03:28:19.895Z, 35.71
2023-05-18T03:29:19.900Z, 35.69
2023-05-18T03:30:19.867Z, 35.67
2023-05-18T03:31:19.923Z, 35.95
2023-05-18T03:32:19.870Z, 37.01
2023-05-18T03:33:19.950Z, 38.93
2023-05-18T03:34:19.918Z, 40.24
2023-05-18T03:35:19.924Z, 41.11
2023-05-18T03:36:19.917Z, 41.77
2023-05-18T03:37:19.917Z, 42.26
2023-05-18T03:38:19.934Z, 42.58
2023-05-18T03:39:19.945Z, 42.88
2023-05-18T03:40:19.963Z, 43.17
2023-05-18T03:41:19.954Z, 43.51
2023-05-18T03:42:20.041Z, 43.84
2023-05-18T03:43:20.015Z, 44.19
2023-05-18T03:44:20.034Z, 44.49
2023-05-18T03:45:20.024Z, 44.75
2023-05-18T03:46:20.091Z, 44.96
2023-05-18T03:47:20.040Z, 45.17
2023-05-18T03:48:20.119Z, 45.44
2023-05-18T03:49:20.065Z, 45.59
2023-05-18T03:50:20.126Z, 45.78
2023-05-18T03:51:20.128Z, 45.93
2023-05-18T03:52:20.114Z, 46.09
2023-05-18T03:53:20.190Z, 46.21
2023-05-18T03:54:20.150Z, 46.35
2023-05-18T03:55:20.215Z, 46.46
2023-05-18T03:56:20.196Z, 46.59
2023-05-18T03:57:20.192Z, 46.65
2023-05-18T03:58:20.296Z, 46.74
2023-05-18T03:59:20.212Z, 46.87
2023-05-18T04:00:20.254Z, 46.93
2023-05-18T04:01:20.236Z, 47.11
2023-05-18T04:02:20.246Z, 50.91
2023-05-18T04:03:20.323Z, 54.50
2023-05-18T04:04:20.306Z, 56.88
2023-05-18T04:05:20.327Z, 59.82
2023-05-18T04:06:20.278Z, 68.61
2023-05-18T04:07:20.353Z, 59.67
2023-05-18T04:08:20.320Z, 56.07
2023-05-18T04:09:20.310Z, 55.77
2023-05-18T04:10:20.318Z, 57.02
2023-05-18T04:11:20.338Z, 59.30
2023-05-18T04:12:20.441Z, 68.03
2023-05-18T04:13:20.419Z, 67.39
2023-05-18T04:14:20.446Z, 61.02
2023-05-18T04:15:20.435Z, 58.83
2023-05-18T04:16:20.488Z, 57.16
2023-05-18T04:17:20.445Z, 54.93
2023-05-18T04:18:20.473Z, 54.95
2023-05-18T04:19:20.518Z, 55.34
2023-05-18T04:20:20.557Z, 56.42
2023-05-18T04:21:20.531Z, 56.54
2023-05-18T04:22:20.528Z, 56.42
2023-05-18T04:23:20.556Z, 56.26
2023-05-18T04:24:20.552Z, 56.05
2023-05-18T04:25:20.556Z, 55.83
2023-05-18T04:26:20.577Z, 55.63
2023-05-18T04:27:20.593Z, 55.44
2023-05-18T04:28:20.588Z, 55.24
2023-05-18T04:29:20.584Z, 55.10
2023-05-18T04:30:20.579Z, 54.92
2023-05-18T04:31:20.705Z, 54.73
2023-05-18T04:32:20.672Z, 54.56
2023-05-18T04:33:20.661Z, 54.40
2023-05-18T04:34:20.632Z, 54.25
2023-05-18T04:35:20.628Z, 54.06
2023-05-18T04:36:21.367Z, 53.92
2023-05-18T04:37:20.699Z, 53.81
2023-05-18T04:38:20.661Z, 53.90
2023-05-18T04:39:20.728Z, 54.37
2023-05-18T04:40:20.712Z, 54.61
2023-05-18T04:41:20.774Z, 54.60
2023-05-18T04:42:20.741Z, 54.36
2023-05-18T04:43:20.790Z, 54.08
2023-05-18T04:44:20.758Z, 53.85
2023-05-18T04:45:20.825Z, 53.57
2023-05-18T04:46:20.771Z, 53.46
2023-05-18T04:47:20.768Z, 53.29
2023-05-18T04:48:20.850Z, 53.18
2023-05-18T04:49:20.808Z, 52.99
2023-05-18T04:50:20.883Z, 52.76
2023-05-18T04:51:20.852Z, 52.51
2023-05-18T04:52:20.866Z, 52.28
2023-05-18T04:53:20.863Z, 52.07
2023-05-18T04:54:20.860Z, 51.88
2023-05-18T04:55:20.919Z, 51.67
2023-05-18T04:56:20.895Z, 51.47
2023-05-18T04:57:20.957Z, 51.28
2023-05-18T04:58:20.922Z, 51.07
2023-05-18T04:59:20.936Z, 50.98
2023-05-18T05:00:20.936Z, 50.88
2023-05-18T05:01:20.984Z, 50.69
2023-05-18T05:02:21.076Z, 50.57
2023-05-18T05:03:21.105Z, 50.43
2023-05-18T05:04:21.069Z, 50.35
2023-05-18T05:05:21.024Z, 50.24
2023-05-18T05:06:21.090Z, 50.18
2023-05-18T05:07:21.062Z, 50.15
2023-05-18T05:08:21.145Z, 50.08
2023-05-18T05:09:21.093Z, 50.06
2023-05-18T05:10:21.130Z, 49.97
2023-05-18T05:11:21.084Z, 49.80
2023-05-18T05:12:21.089Z, 49.76
2023-05-18T05:13:21.097Z, 49.66
2023-05-18T05:14:21.102Z, 49.65
2023-05-18T05:15:21.177Z, 49.56
2023-05-18T05:16:21.250Z, 49.48
2023-05-18T05:17:21.191Z, 49.43
2023-05-18T05:18:21.181Z, 49.83
2023-05-18T05:19:21.298Z, 49.75
2023-05-18T05:20:21.264Z, 49.67
2023-05-18T05:21:21.215Z, 49.65
2023-05-18T05:22:21.221Z, 49.47
2023-05-18T05:23:21.206Z, 49.45
2023-05-18T05:24:21.321Z, 49.34
2023-05-18T05:25:21.278Z, 49.24
2023-05-18T05:26:21.272Z, 49.13
2023-05-18T05:27:21.283Z, 49.05
2023-05-18T05:28:21.289Z, 49.02
2023-05-18T05:29:21.287Z, 49.02
2023-05-18T05:30:21.317Z, 49.04
2023-05-18T05:31:21.375Z, 48.96
2023-05-18T05:32:21.337Z, 48.87
2023-05-18T05:33:21.344Z, 48.84
2023-05-18T05:34:21.356Z, 48.85
2023-05-18T05:35:21.446Z, 48.75
2023-05-18T05:36:21.410Z, 48.74
2023-05-18T05:37:21.491Z, 48.70
2023-05-18T05:38:21.492Z, 48.73
2023-05-18T05:39:21.493Z, 48.64
2023-05-18T05:40:21.472Z, 48.56
2023-05-18T05:41:21.472Z, 48.51
2023-05-18T05:42:21.472Z, 48.53
2023-05-18T05:43:21.483Z, 48.48
2023-05-18T05:44:21.480Z, 48.38
2023-05-18T05:45:21.504Z, 48.42
2023-05-18T05:46:21.628Z, 48.34
2023-05-18T05:47:21.649Z, 48.31
2023-05-18T05:48:21.576Z, 48.32
2023-05-18T05:49:21.566Z, 48.28
2023-05-18T05:50:21.563Z, 48.24
2023-05-18T05:51:21.564Z, 48.28
2023-05-18T05:52:21.578Z, 48.21
2023-05-18T05:53:21.661Z, 48.21
2023-05-18T05:54:21.616Z, 48.22
2023-05-18T05:55:21.682Z, 48.20
2023-05-18T05:56:21.652Z, 48.20
2023-05-18T05:57:21.710Z, 48.12
2023-05-18T05:58:21.696Z, 48.14
2023-05-18T05:59:21.689Z, 48.11
2023-05-18T06:00:21.701Z, 48.09
2023-05-18T06:01:21.704Z, 48.10
2023-05-18T06:02:21.735Z, 48.09
2023-05-18T06:03:21.958Z, 48.11
2023-05-18T06:04:21.867Z, 48.09
2023-05-18T06:05:21.799Z, 48.04
2023-05-18T06:06:21.794Z, 48.02
2023-05-18T06:07:21.804Z, 48.01
2023-05-18T06:08:21.791Z, 48.00
2023-05-18T06:09:21.837Z, 47.91
2023-05-18T06:10:21.815Z, 47.94
2023-05-18T06:11:21.823Z, 47.95
2023-05-18T06:12:21.881Z, 47.93
2023-05-18T06:13:21.873Z, 47.88
2023-05-18T06:14:21.936Z, 47.86
2023-05-18T06:15:21.893Z, 47.86
2023-05-18T06:16:21.980Z, 47.88
2023-05-18T06:17:21.947Z, 47.86
2023-05-18T06:18:21.953Z, 47.88
2023-05-18T06:19:22.046Z, 47.82
2023-05-18T06:20:21.947Z, 47.74
2023-05-18T06:21:22.013Z, 47.77
2023-05-18T06:22:21.984Z, 47.75
2023-05-18T06:23:22.048Z, 47.70
2023-05-18T06:24:22.025Z, 47.64
2023-05-18T06:25:22.072Z, 47.64
2023-05-18T06:26:22.034Z, 47.62
2023-05-18T06:27:22.063Z, 47.63
2023-05-18T06:28:22.056Z, 47.58
2023-05-18T06:29:22.050Z, 47.60
2023-05-18T06:30:22.057Z, 47.49
2023-05-18T06:31:22.079Z, 47.46
2023-05-18T06:32:22.168Z, 47.46
2023-05-18T06:33:22.136Z, 47.46
2023-05-18T06:34:22.163Z, 47.45
2023-05-18T06:35:22.136Z, 47.45
2023-05-18T06:36:22.132Z, 47.47
2023-05-18T06:37:22.129Z, 47.40
2023-05-18T06:38:22.131Z, 47.42
2023-05-18T06:39:22.133Z, 47.36
2023-05-18T06:40:22.157Z, 47.32
2023-05-18T06:41:22.164Z, 47.30
2023-05-18T06:42:22.178Z, 47.31
2023-05-18T06:43:22.269Z, 47.27
2023-05-18T06:44:22.274Z, 47.28
2023-05-18T06:45:22.283Z, 47.18
2023-05-18T06:46:22.291Z, 47.20
2023-05-18T06:47:22.258Z, 47.25
2023-05-18T06:48:22.261Z, 47.21
2023-05-18T06:49:22.280Z, 47.10
2023-05-18T06:50:22.364Z, 47.12
2023-05-18T06:51:22.338Z, 47.15
2023-05-18T06:52:23.511Z, 47.11
2023-05-18T06:53:22.338Z, 47.13
2023-05-18T06:54:22.359Z, 47.03
2023-05-18T06:55:22.352Z, 47.00
2023-05-18T06:56:22.370Z, 47.00
2023-05-18T06:57:22.372Z, 46.93
2023-05-18T06:58:22.379Z, 47.03
2023-05-18T06:59:22.415Z, 47.03
2023-05-18T07:00:22.410Z, 47.01
2023-05-18T07:01:22.511Z, 47.00
2023-05-18T07:02:22.469Z, 47.04
2023-05-18T07:03:22.485Z, 46.97
2023-05-18T07:04:22.459Z, 46.88
2023-05-18T07:05:22.469Z, 46.90
2023-05-18T07:06:22.552Z, 46.88
2023-05-18T07:07:22.514Z, 46.90
2023-05-18T07:08:22.544Z, 46.84
2023-05-18T07:09:22.528Z, 46.87
2023-05-18T07:10:22.605Z, 46.83
2023-05-18T07:11:22.573Z, 46.89
2023-05-18T07:12:22.669Z, 46.91
2023-05-18T07:13:22.601Z, 46.83
2023-05-18T07:14:22.614Z, 46.78
2023-05-18T07:15:22.611Z, 46.84
2023-05-18T07:16:22.729Z, 46.86
2023-05-18T07:17:22.694Z, 46.81
2023-05-18T07:18:22.669Z, 46.78
2023-05-18T07:19:22.984Z, 46.79
2023-05-18T07:20:24.942Z, 46.73
2023-05-18T07:21:22.692Z, 46.77
2023-05-18T07:22:22.696Z, 46.73
2023-05-18T07:23:22.684Z, 46.65
2023-05-18T07:24:22.773Z, 46.60
2023-05-18T07:25:22.778Z, 46.62
2023-05-18T07:26:22.760Z, 46.58
2023-05-18T07:27:22.763Z, 46.50
2023-05-18T07:28:22.752Z, 46.51
2023-05-18T07:29:22.785Z, 46.55
2023-05-18T07:30:22.820Z, 46.53
2023-05-18T07:31:23.070Z, 46.48
2023-05-18T07:32:22.816Z, 46.49
2023-05-18T07:33:22.857Z, 46.55
2023-05-18T07:34:22.842Z, 46.55
2023-05-18T07:35:22.837Z, 46.53
2023-05-18T07:36:22.838Z, 46.52
2023-05-18T07:37:22.874Z, 46.54
2023-05-18T07:38:22.880Z, 46.55
2023-05-18T07:39:22.897Z, 46.47
2023-05-18T07:40:22.970Z, 46.49
2023-05-18T07:41:22.998Z, 46.49
2023-05-18T07:42:22.981Z, 46.45
2023-05-18T07:43:23.012Z, 46.46
2023-05-18T07:44:23.014Z, 46.37
2023-05-18T07:45:22.974Z, 46.34
2023-05-18T07:46:23.169Z, 46.33
2023-05-18T07:47:23.029Z, 46.31
2023-05-18T07:48:22.995Z, 46.24
2023-05-18T07:49:23.074Z, 46.20
2023-05-18T07:50:23.040Z, 46.29
2023-05-18T07:51:23.101Z, 46.29
2023-05-18T07:52:23.087Z, 46.24
2023-05-18T07:53:23.108Z, 46.19
2023-05-18T07:54:23.092Z, 46.15
2023-05-18T07:55:23.152Z, 46.11
2023-05-18T07:56:23.112Z, 46.11
2023-05-18T07:57:23.163Z, 46.16
2023-05-18T07:58:23.130Z, 46.19
2023-05-18T07:59:23.196Z, 46.09
2023-05-18T08:00:23.177Z, 46.13
2023-05-18T08:01:23.167Z, 46.04
2023-05-18T08:02:23.279Z, 46.09
2023-05-18T08:03:23.373Z, 46.07
2023-05-18T08:04:23.358Z, 46.01
2023-05-18T08:05:23.231Z, 45.98
2023-05-18T08:06:23.312Z, 45.93
2023-05-18T08:07:23.267Z, 45.99
2023-05-18T08:08:23.297Z, 45.99
2023-05-18T08:09:23.292Z, 45.94
2023-05-18T08:10:23.294Z, 45.90
2023-05-18T08:11:23.354Z, 45.94
2023-05-18T08:12:23.320Z, 45.89
2023-05-18T08:13:23.390Z, 45.90
2023-05-18T08:14:23.373Z, 45.78
2023-05-18T08:15:23.421Z, 45.73
2023-05-18T08:16:23.412Z, 45.80
2023-05-18T08:17:23.447Z, 45.73
2023-05-18T08:18:23.423Z, 45.76
2023-05-18T08:19:23.487Z, 45.79
2023-05-18T08:20:23.418Z, 45.82
2023-05-18T08:21:23.409Z, 45.73
2023-05-18T08:22:23.417Z, 45.78
2023-05-18T08:23:23.425Z, 45.77
2023-05-18T08:24:23.476Z, 45.74
2023-05-18T08:25:23.477Z, 45.69
2023-05-18T08:26:23.477Z, 45.65
2023-05-18T08:27:23.486Z, 45.66
2023-05-18T08:28:23.500Z, 45.59
2023-05-18T08:29:23.546Z, 45.56
2023-05-18T08:30:23.526Z, 45.59
2023-05-18T08:31:23.614Z, 45.58
2023-05-18T08:32:23.680Z, 45.59
2023-05-18T08:33:23.639Z, 45.56
2023-05-18T08:34:23.646Z, 45.61
2023-05-18T08:35:23.605Z, 45.64
2023-05-18T08:36:23.612Z, 45.62
2023-05-18T08:37:23.611Z, 45.58
2023-05-18T08:38:23.636Z, 45.50
2023-05-18T08:39:23.649Z, 45.48
2023-05-18T08:40:23.729Z, 45.47
2023-05-18T08:41:23.724Z, 45.48
2023-05-18T08:42:25.978Z, 45.39
2023-05-18T08:43:23.704Z, 45.40
2023-05-18T08:44:23.700Z, 45.40
2023-05-18T08:45:23.782Z, 45.37
2023-05-18T08:46:23.752Z, 45.30
2023-05-18T08:47:23.835Z, 45.36
2023-05-18T08:48:25.615Z, 45.43
2023-05-18T08:49:23.810Z, 45.35
2023-05-18T08:50:24.657Z, 45.29
2023-05-18T08:51:23.861Z, 45.36
2023-05-18T08:52:23.815Z, 45.31
2023-05-18T08:53:23.856Z, 45.25
2023-05-18T08:54:23.869Z, 45.28
2023-05-18T08:55:23.879Z, 45.29
2023-05-18T08:56:23.869Z, 45.24
2023-05-18T08:57:23.889Z, 45.19
2023-05-18T08:58:23.881Z, 45.18
2023-05-18T08:59:23.886Z, 45.25
2023-05-18T09:00:24.582Z, 45.25
2023-05-18T09:01:23.944Z, 45.17
2023-05-18T09:02:23.962Z, 45.23
2023-05-18T09:03:23.923Z, 45.19
2023-05-18T09:04:24.028Z, 45.18
2023-05-18T09:05:24.088Z, 45.21
2023-05-18T09:06:24.246Z, 45.10
2023-05-18T09:07:23.999Z, 45.10
2023-05-18T09:08:24.036Z, 45.13
2023-05-18T09:09:24.019Z, 45.10
2023-05-18T09:10:24.048Z, 45.09
2023-05-18T09:11:24.041Z, 45.02
2023-05-18T09:12:24.585Z, 45.02
2023-05-18T09:13:24.100Z, 44.95
2023-05-18T09:14:24.107Z, 44.96
2023-05-18T09:15:24.123Z, 44.84
2023-05-18T09:16:24.112Z, 44.87
2023-05-18T09:17:24.173Z, 44.90
2023-05-18T09:18:26.801Z, 44.85
2023-05-18T09:19:24.203Z, 44.85
2023-05-18T09:20:24.151Z, 44.86
2023-05-18T09:21:24.147Z, 44.88
2023-05-18T09:22:24.158Z, 44.88
2023-05-18T09:23:24.227Z, 44.81
2023-05-18T09:24:24.939Z, 44.89
2023-05-18T09:25:24.284Z, 44.86
2023-05-18T09:26:24.265Z, 44.85
2023-05-18T09:27:24.258Z, 44.78
2023-05-18T09:28:24.249Z, 44.80
2023-05-18T09:29:24.373Z, 44.80
2023-05-18T09:30:24.345Z, 44.73
2023-05-18T09:31:24.552Z, 44.74
2023-05-18T09:32:24.378Z, 44.71
2023-05-18T09:33:24.491Z, 44.69
2023-05-18T09:34:24.358Z, 44.66
2023-05-18T09:35:24.340Z, 44.63
2023-05-18T09:36:24.360Z, 44.60
2023-05-18T09:37:24.366Z, 44.59
2023-05-18T09:38:24.364Z, 44.65
2023-05-18T09:39:24.447Z, 44.63
2023-05-18T09:40:24.415Z, 44.56
2023-05-18T09:41:24.469Z, 44.58
2023-05-18T09:42:24.447Z, 44.49
2023-05-18T09:43:24.475Z, 44.51
2023-05-18T09:44:24.460Z, 44.49
2023-05-18T09:45:24.494Z, 44.48
2023-05-18T09:46:24.537Z, 44.54
2023-05-18T09:47:24.534Z, 44.47
2023-05-18T09:48:25.509Z, 44.44
2023-05-18T09:49:24.485Z, 44.45
2023-05-18T09:50:24.481Z, 44.47
2023-05-18T09:51:24.510Z, 44.45
2023-05-18T09:52:24.606Z, 44.40
2023-05-18T09:53:24.574Z, 44.33
2023-05-18T09:54:24.637Z, 44.32
2023-05-18T09:55:24.591Z, 44.29
2023-05-18T09:56:24.629Z, 44.30
2023-05-18T09:57:24.674Z, 44.30
2023-05-18T09:58:24.649Z, 44.29
2023-05-18T09:59:24.646Z, 44.26
2023-05-18T10:00:25.644Z, 44.23
2023-05-18T10:01:24.758Z, 44.53
2023-05-18T10:02:24.674Z, 45.64
2023-05-18T10:03:24.676Z, 46.31
2023-05-18T10:04:24.710Z, 46.76
2023-05-18T10:05:24.681Z, 47.04
2023-05-18T10:06:24.694Z, 47.13
2023-05-18T10:07:24.698Z, 47.28
2023-05-18T10:08:24.715Z, 47.41
2023-05-18T10:09:24.734Z, 47.44
2023-05-18T10:10:24.749Z, 47.50
2023-05-18T10:11:24.759Z, 47.47
2023-05-18T10:12:24.776Z, 47.49
2023-05-18T10:13:24.762Z, 47.47
2023-05-18T10:14:24.862Z, 47.51
2023-05-18T10:15:24.838Z, 47.58
2023-05-18T10:16:25.005Z, 47.64
2023-05-18T10:17:24.936Z, 47.62
2023-05-18T10:18:24.936Z, 47.66
2023-05-18T10:19:24.986Z, 47.70
2023-05-18T10:20:24.910Z, 47.73
2023-05-18T10:21:24.937Z, 47.76
2023-05-18T10:22:24.904Z, 47.79
2023-05-18T10:23:24.990Z, 47.79
2023-05-18T10:24:24.975Z, 47.80
2023-05-18T10:25:24.973Z, 47.81
2023-05-18T10:26:24.961Z, 47.82
2023-05-18T10:27:24.969Z, 47.82
2023-05-18T10:28:25.020Z, 47.79
2023-05-18T10:29:24.994Z, 47.80
2023-05-18T10:30:25.048Z, 47.79
2023-05-18T10:31:25.073Z, 47.69
2023-05-18T10:32:25.071Z, 47.49
2023-05-18T10:33:29.458Z, 47.65
2023-05-18T10:34:25.048Z, 47.63
2023-05-18T10:35:25.045Z, 47.40
2023-05-18T10:36:25.054Z, 47.09
2023-05-18T10:37:25.100Z, 46.90
2023-05-18T10:38:25.097Z, 46.70
2023-05-18T10:39:25.106Z, 46.59
2023-05-18T10:40:25.184Z, 46.48
2023-05-18T10:41:25.168Z, 46.38
2023-05-18T10:42:25.184Z, 46.28
2023-05-18T10:43:25.175Z, 46.23
2023-05-18T10:44:25.237Z, 46.16
2023-05-18T10:45:25.209Z, 46.08
2023-05-18T10:46:25.319Z, 46.01
2023-05-18T10:47:25.460Z, 45.94
2023-05-18T10:48:25.246Z, 45.88
2023-05-18T10:49:25.225Z, 45.78
2023-05-18T10:50:25.278Z, 45.71
2023-05-18T10:51:25.275Z, 45.64
2023-05-18T10:52:25.326Z, 45.59
2023-05-18T10:53:25.293Z, 45.59
2023-05-18T10:54:25.311Z, 45.55
2023-05-18T10:55:25.317Z, 45.53
2023-05-18T10:56:25.367Z, 45.45
2023-05-18T10:57:25.346Z, 45.41
2023-05-18T10:58:25.346Z, 45.40
2023-05-18T10:59:25.339Z, 45.37
2023-05-18T11:00:25.336Z, 45.35
2023-05-18T11:01:25.393Z, 45.34
2023-05-18T11:02:25.442Z, 45.29
2023-05-18T11:03:25.435Z, 45.26
2023-05-18T11:04:25.413Z, 45.23
2023-05-18T11:05:25.570Z, 45.18
2023-05-18T11:06:25.470Z, 45.11
2023-05-18T11:07:25.449Z, 45.06
2023-05-18T11:08:25.455Z, 45.07
2023-05-18T11:09:25.445Z, 45.03
2023-05-18T11:10:25.552Z, 45.08
2023-05-18T11:11:25.530Z, 45.01
2023-05-18T11:12:25.544Z, 44.99
2023-05-18T11:13:25.518Z, 45.02
2023-05-18T11:14:25.580Z, 44.98
2023-05-18T11:15:25.560Z, 44.97
2023-05-18T11:16:25.621Z, 44.89
2023-05-18T11:17:25.807Z, 44.90
2023-05-18T11:18:25.565Z, 44.96
2023-05-18T11:19:25.794Z, 44.92
2023-05-18T11:20:25.646Z, 44.89
2023-05-18T11:21:25.629Z, 44.93
2023-05-18T11:22:25.632Z, 44.91
2023-05-18T11:23:25.618Z, 44.89
2023-05-18T11:24:25.632Z, 44.85
2023-05-18T11:25:25.718Z, 44.87
2023-05-18T11:26:25.655Z, 44.77
2023-05-18T11:27:25.665Z, 44.82
2023-05-18T11:28:25.697Z, 44.80
2023-05-18T11:29:25.699Z, 44.75
2023-05-18T11:30:25.770Z, 44.69
2023-05-18T11:31:25.816Z, 44.63
2023-05-18T11:32:30.172Z, 44.59
2023-05-18T11:33:25.827Z, 44.60
2023-05-18T11:34:25.790Z, 44.60
2023-05-18T11:35:25.784Z, 44.57
2023-05-18T11:36:25.791Z, 44.58
2023-05-18T11:37:25.869Z, 44.54
2023-05-18T11:38:25.852Z, 44.52
2023-05-18T11:39:25.859Z, 44.49
2023-05-18T11:40:25.842Z, 44.52
2023-05-18T11:41:25.855Z, 44.46
2023-05-18T11:42:25.854Z, 44.46
2023-05-18T11:43:25.869Z, 44.40
2023-05-18T11:44:25.889Z, 44.38
2023-05-18T11:45:25.901Z, 44.44
2023-05-18T11:46:25.982Z, 44.45
2023-05-18T11:47:25.998Z, 44.45
2023-05-18T11:48:26.108Z, 44.44
2023-05-18T11:49:25.998Z, 44.46
2023-05-18T11:50:26.011Z, 44.37
2023-05-18T11:51:25.989Z, 44.40
2023-05-18T11:52:25.990Z, 44.38
2023-05-18T11:53:26.056Z, 44.32
2023-05-18T11:54:26.028Z, 44.32
2023-05-18T11:55:26.120Z, 44.30
2023-05-18T11:56:26.078Z, 44.27
2023-05-18T11:57:26.085Z, 44.30
2023-05-18T11:58:26.185Z, 44.27
2023-05-18T11:59:26.086Z, 44.26
2023-05-18T12:00:26.087Z, 44.28
2023-05-18T12:01:26.113Z, 44.21
2023-05-18T12:02:26.482Z, 44.19
2023-05-18T12:03:26.387Z, 44.21
2023-05-18T12:04:26.263Z, 44.18
2023-05-18T12:05:26.194Z, 44.13
2023-05-18T12:06:26.195Z, 44.12
2023-05-18T12:07:26.222Z, 44.11
2023-05-18T12:08:26.214Z, 44.05
2023-05-18T12:09:26.265Z, 44.01
2023-05-18T12:10:26.246Z, 44.02
2023-05-18T12:11:26.309Z, 44.00
2023-05-18T12:12:26.265Z, 44.03
2023-05-18T12:13:26.311Z, 43.94
2023-05-18T12:14:26.299Z, 43.91
2023-05-18T12:15:26.408Z, 43.93
2023-05-18T12:16:26.372Z, 43.87
2023-05-18T12:17:26.360Z, 43.84
2023-05-18T12:18:26.381Z, 43.85
2023-05-18T12:19:26.444Z, 43.88
2023-05-18T12:20:26.399Z, 43.81
2023-05-18T12:21:26.371Z, 43.76
2023-05-18T12:22:26.361Z, 43.76
2023-05-18T12:23:26.390Z, 43.78
2023-05-18T12:24:26.381Z, 43.81
2023-05-18T12:25:26.403Z, 43.76
2023-05-18T12:26:26.394Z, 43.80
2023-05-18T12:27:26.505Z, 43.75
2023-05-18T12:28:26.421Z, 43.70